Aliq, Pennsylvania
Current Conditions -  °F | °C
As of 8:51 PM on Saturday 25 Oct 2014 (Local Time) from KPIT Reporting Station
Scattered Clouds Scattered Clouds  
Wind Chill: 61°   Ceiling: Unl
Heat Index: 61°   Visibility: 10mi
Dew Point: 52°   Wind: 9mph
Humidity: 72%   Direction: 240°WSW
Pressure: 29.75"   Gusts: NA
Location:  40.5921°N, 80.3191°W
Report Text: KPIT 260051Z 24008KT 10SM FEW050 SCT250 16/11 A2975 RMK AO2 SLP082 T01610111
Loading
Personal Weather Stations






























Interactive Weather Map
Tropical Storm Tracking
New forecast layout! Learn more

10-Day Weather Forecast

Advertisements
Track Severe Weather on mobile